sensor_id;sensor_type;location;lat;lon;timestamp;P1;durP1;ratioP1;P2;durP2;ratioP2
27219;SDS011;45274;52.266;10.790;2024-02-04T00:01:31;8.20;;;3.50;;
27219;SDS011;45274;52.266;10.790;2024-02-04T00:03:57;8.32;;;3.35;;
27219;SDS011;45274;52.266;10.790;2024-02-04T00:06:22;9.65;;;4.90;;
27219;SDS011;45274;52.266;10.790;2024-02-04T00:08:48;8.07;;;3.78;;
27219;SDS011;45274;52.266;10.790;2024-02-04T00:11:13;10.40;;;4.35;;
27219;SDS011;45274;52.266;10.790;2024-02-04T00:13:38;8.85;;;4.10;;
27219;SDS011;45274;52.266;10.790;2024-02-04T00:16:04;8.10;;;4.07;;
27219;SDS011;45274;52.266;10.790;2024-02-04T00:18:30;8.43;;;3.60;;
27219;SDS011;45274;52.266;10.790;2024-02-04T00:20:55;7.22;;;3.13;;
27219;SDS011;45274;52.266;10.790;2024-02-04T00:23:21;6.75;;;3.10;;
27219;SDS011;45274;52.266;10.790;2024-02-04T00:25:46;11.88;;;4.60;;
27219;SDS011;45274;52.266;10.790;2024-02-04T00:28:13;7.22;;;3.33;;
27219;SDS011;45274;52.266;10.790;2024-02-04T00:30:38;8.30;;;3.67;;
27219;SDS011;45274;52.266;10.790;2024-02-04T00:33:04;6.05;;;3.38;;
27219;SDS011;45274;52.266;10.790;2024-02-04T00:35:30;7.35;;;3.08;;
27219;SDS011;45274;52.266;10.790;2024-02-04T00:37:55;6.35;;;3.45;;
27219;SDS011;45274;52.266;10.790;2024-02-04T00:40:21;8.38;;;3.65;;
27219;SDS011;45274;52.266;10.790;2024-02-04T00:42:46;6.05;;;3.28;;
27219;SDS011;45274;52.266;10.790;2024-02-04T00:45:12;10.15;;;3.88;;
27219;SDS011;45274;52.266;10.790;2024-02-04T00:47:37;6.53;;;3.30;;
27219;SDS011;45274;52.266;10.790;2024-02-04T00:50:03;13.23;;;3.28;;
27219;SDS011;45274;52.266;10.790;2024-02-04T00:52:29;7.00;;;3.38;;
27219;SDS011;45274;52.266;10.790;2024-02-04T00:54:54;9.38;;;2.80;;
27219;SDS011;45274;52.266;10.790;2024-02-04T00:57:19;7.25;;;2.88;;
27219;SDS011;45274;52.266;10.790;2024-02-04T00:59:45;7.38;;;2.67;;
27219;SDS011;45274;52.266;10.790;2024-02-04T01:02:10;10.18;;;2.90;;
27219;SDS011;45274;52.266;10.790;2024-02-04T01:04:35;7.63;;;2.78;;
27219;SDS011;45274;52.266;10.790;2024-02-04T01:07:01;10.70;;;3.33;;
27219;SDS011;45274;52.266;10.790;2024-02-04T01:09:27;6.50;;;2.42;;
27219;SDS011;45274;52.266;10.790;2024-02-04T01:11:55;6.82;;;2.90;;
27219;SDS011;45274;52.266;10.790;2024-02-04T01:14:21;5.53;;;2.72;;
27219;SDS011;45274;52.266;10.790;2024-02-04T01:16:46;5.75;;;2.88;;
27219;SDS011;45274;52.266;10.790;2024-02-04T01:19:11;4.97;;;2.30;;
27219;SDS011;45274;52.266;10.790;2024-02-04T01:21:37;6.90;;;2.60;;
27219;SDS011;45274;52.266;10.790;2024-02-04T01:24:02;7.03;;;2.53;;
27219;SDS011;45274;52.266;10.790;2024-02-04T01:26:28;6.45;;;2.92;;
27219;SDS011;45274;52.266;10.790;2024-02-04T01:28:53;6.20;;;3.28;;
27219;SDS011;45274;52.266;10.790;2024-02-04T01:31:19;7.82;;;3.28;;
27219;SDS011;45274;52.266;10.790;2024-02-04T01:33:44;6.18;;;3.10;;
27219;SDS011;45274;52.266;10.790;2024-02-04T01:36:09;7.10;;;3.20;;
27219;SDS011;45274;52.266;10.790;2024-02-04T01:38:35;5.22;;;3.03;;
27219;SDS011;45274;52.266;10.790;2024-02-04T01:41:00;7.47;;;3.72;;
27219;SDS011;45274;52.266;10.790;2024-02-04T01:43:25;6.72;;;3.53;;
27219;SDS011;45274;52.266;10.790;2024-02-04T01:45:51;8.20;;;3.78;;
27219;SDS011;45274;52.266;10.790;2024-02-04T01:48:17;8.35;;;3.58;;
27219;SDS011;45274;52.266;10.790;2024-02-04T01:50:44;9.00;;;3.90;;
27219;SDS011;45274;52.266;10.790;2024-02-04T01:53:12;5.95;;;3.58;;
27219;SDS011;45274;52.266;10.790;2024-02-04T01:55:38;6.28;;;3.53;;
27219;SDS011;45274;52.266;10.790;2024-02-04T01:58:04;7.50;;;3.72;;
27219;SDS011;45274;52.266;10.790;2024-02-04T02:00:29;6.45;;;3.47;;
27219;SDS011;45274;52.266;10.790;2024-02-04T02:02:56;14.55;;;3.50;;
27219;SDS011;45274;52.266;10.790;2024-02-04T02:05:21;9.48;;;3.90;;
27219;SDS011;45274;52.266;10.790;2024-02-04T02:07:47;10.70;;;3.63;;
27219;SDS011;45274;52.266;10.790;2024-02-04T02:10:16;13.20;;;4.20;;
27219;SDS011;45274;52.266;10.790;2024-02-04T02:12:52;5.45;;;3.55;;
27219;SDS011;45274;52.266;10.790;2024-02-04T02:15:34;10.27;;;3.70;;
27219;SDS011;45274;52.266;10.790;2024-02-04T02:18:14;10.93;;;4.25;;
27219;SDS011;45274;52.266;10.790;2024-02-04T02:23:20;8.05;;;3.95;;
27219;SDS011;45274;52.266;10.790;2024-02-04T02:25:47;8.18;;;4.18;;
27219;SDS011;45274;52.266;10.790;2024-02-04T02:28:15;8.57;;;4.00;;
27219;SDS011;45274;52.266;10.790;2024-02-04T02:30:40;9.38;;;4.60;;
27219;SDS011;45274;52.266;10.790;2024-02-04T02:33:06;8.93;;;3.80;;
27219;SDS011;45274;52.266;10.790;2024-02-04T02:35:33;9.60;;;4.03;;
27219;SDS011;45274;52.266;10.790;2024-02-04T02:40:38;9.45;;;3.58;;
27219;SDS011;45274;52.266;10.790;2024-02-04T02:43:10;7.13;;;3.60;;
27219;SDS011;45274;52.266;10.790;2024-02-04T02:45:36;9.18;;;3.70;;
27219;SDS011;45274;52.266;10.790;2024-02-04T02:48:04;12.38;;;3.70;;
27219;SDS011;45274;52.266;10.790;2024-02-04T02:50:37;9.02;;;3.25;;
27219;SDS011;45274;52.266;10.790;2024-02-04T02:53:03;10.40;;;3.53;;
27219;SDS011;45274;52.266;10.790;2024-02-04T02:55:28;16.50;;;3.75;;
27219;SDS011;45274;52.266;10.790;2024-02-04T02:57:54;11.85;;;3.58;;
27219;SDS011;45274;52.266;10.790;2024-02-04T03:00:19;8.48;;;4.63;;
27219;SDS011;45274;52.266;10.790;2024-02-04T03:02:45;11.63;;;4.50;;
27219;SDS011;45274;52.266;10.790;2024-02-04T03:05:11;12.13;;;4.25;;
27219;SDS011;45274;52.266;10.790;2024-02-04T03:07:37;8.50;;;4.10;;
27219;SDS011;45274;52.266;10.790;2024-02-04T03:10:03;11.65;;;4.85;;
27219;SDS011;45274;52.266;10.790;2024-02-04T03:12:28;9.05;;;4.13;;
27219;SDS011;45274;52.266;10.790;2024-02-04T03:14:54;8.63;;;4.30;;
27219;SDS011;45274;52.266;10.790;2024-02-04T03:17:19;8.52;;;4.60;;
27219;SDS011;45274;52.266;10.790;2024-02-04T03:19:46;9.25;;;4.57;;
27219;SDS011;45274;52.266;10.790;2024-02-04T03:22:16;8.90;;;4.60;;
27219;SDS011;45274;52.266;10.790;2024-02-04T03:24:42;12.98;;;4.60;;
27219;SDS011;45274;52.266;10.790;2024-02-04T03:27:07;12.18;;;5.30;;
27219;SDS011;45274;52.266;10.790;2024-02-04T03:29:33;10.70;;;4.68;;
27219;SDS011;45274;52.266;10.790;2024-02-04T03:31:58;9.05;;;4.80;;
27219;SDS011;45274;52.266;10.790;2024-02-04T03:34:24;8.57;;;4.85;;
27219;SDS011;45274;52.266;10.790;2024-02-04T03:36:49;8.73;;;5.40;;
27219;SDS011;45274;52.266;10.790;2024-02-04T03:39:14;11.35;;;5.05;;
27219;SDS011;45274;52.266;10.790;2024-02-04T03:41:40;11.27;;;5.18;;
27219;SDS011;45274;52.266;10.790;2024-02-04T03:44:05;10.07;;;5.10;;
27219;SDS011;45274;52.266;10.790;2024-02-04T03:46:31;7.43;;;5.00;;
27219;SDS011;45274;52.266;10.790;2024-02-04T03:48:56;11.05;;;5.07;;
27219;SDS011;45274;52.266;10.790;2024-02-04T03:51:22;9.63;;;5.05;;
27219;SDS011;45274;52.266;10.790;2024-02-04T03:53:47;9.05;;;5.20;;
27219;SDS011;45274;52.266;10.790;2024-02-04T03:56:14;11.50;;;5.47;;
27219;SDS011;45274;52.266;10.790;2024-02-04T03:58:39;7.38;;;4.90;;
27219;SDS011;45274;52.266;10.790;2024-02-04T04:01:05;8.93;;;4.97;;
27219;SDS011;45274;52.266;10.790;2024-02-04T04:03:30;10.70;;;5.13;;
27219;SDS011;45274;52.266;10.790;2024-02-04T04:05:56;7.60;;;4.43;;
27219;SDS011;45274;52.266;10.790;2024-02-04T04:08:21;8.57;;;4.60;;
27219;SDS011;45274;52.266;10.790;2024-02-04T04:10:46;10.38;;;4.80;;
27219;SDS011;45274;52.266;10.790;2024-02-04T04:13:12;8.10;;;4.68;;
27219;SDS011;45274;52.266;10.790;2024-02-04T04:15:38;12.00;;;4.88;;
27219;SDS011;45274;52.266;10.790;2024-02-04T04:18:04;11.88;;;5.53;;
27219;SDS011;45274;52.266;10.790;2024-02-04T04:20:30;12.85;;;5.15;;
27219;SDS011;45274;52.266;10.790;2024-02-04T04:22:55;12.13;;;5.57;;
27219;SDS011;45274;52.266;10.790;2024-02-04T04:25:21;10.38;;;5.25;;
27219;SDS011;45274;52.266;10.790;2024-02-04T04:27:46;10.45;;;5.55;;
27219;SDS011;45274;52.266;10.790;2024-02-04T04:30:13;12.40;;;4.90;;
27219;SDS011;45274;52.266;10.790;2024-02-04T04:32:38;10.00;;;5.13;;
27219;SDS011;45274;52.266;10.790;2024-02-04T04:35:04;18.95;;;5.93;;
27219;SDS011;45274;52.266;10.790;2024-02-04T04:37:29;11.77;;;5.45;;
27219;SDS011;45274;52.266;10.790;2024-02-04T04:39:55;11.35;;;5.53;;
27219;SDS011;45274;52.266;10.790;2024-02-04T04:42:20;12.55;;;5.57;;
27219;SDS011;45274;52.266;10.790;2024-02-04T04:44:45;7.22;;;4.80;;
27219;SDS011;45274;52.266;10.790;2024-02-04T04:47:11;9.60;;;4.88;;
27219;SDS011;45274;52.266;10.790;2024-02-04T04:49:37;10.52;;;5.03;;
27219;SDS011;45274;52.266;10.790;2024-02-04T04:52:02;7.47;;;4.78;;
27219;SDS011;45274;52.266;10.790;2024-02-04T04:54:28;7.63;;;4.82;;
27219;SDS011;45274;52.266;10.790;2024-02-04T04:56:53;9.57;;;5.00;;
27219;SDS011;45274;52.266;10.790;2024-02-04T04:59:18;9.48;;;5.00;;
27219;SDS011;45274;52.266;10.790;2024-02-04T05:01:44;11.27;;;5.05;;
27219;SDS011;45274;52.266;10.790;2024-02-04T05:04:11;9.43;;;4.85;;
27219;SDS011;45274;52.266;10.790;2024-02-04T05:06:37;7.65;;;4.60;;
27219;SDS011;45274;52.266;10.790;2024-02-04T05:09:02;11.65;;;4.80;;
27219;SDS011;45274;52.266;10.790;2024-02-04T05:11:28;9.43;;;5.07;;
27219;SDS011;45274;52.266;10.790;2024-02-04T05:13:53;13.57;;;5.03;;
27219;SDS011;45274;52.266;10.790;2024-02-04T05:16:19;8.13;;;5.03;;
27219;SDS011;45274;52.266;10.790;2024-02-04T05:18:45;11.57;;;5.93;;
27219;SDS011;45274;52.266;10.790;2024-02-04T05:21:10;10.10;;;5.60;;
27219;SDS011;45274;52.266;10.790;2024-02-04T05:23:36;12.70;;;5.72;;
27219;SDS011;45274;52.266;10.790;2024-02-04T05:26:03;7.78;;;5.28;;
27219;SDS011;45274;52.266;10.790;2024-02-04T05:28:29;9.63;;;5.50;;
27219;SDS011;45274;52.266;10.790;2024-02-04T05:30:55;12.68;;;5.53;;
27219;SDS011;45274;52.266;10.790;2024-02-04T05:33:20;12.15;;;5.97;;
27219;SDS011;45274;52.266;10.790;2024-02-04T05:35:45;10.65;;;6.00;;
27219;SDS011;45274;52.266;10.790;2024-02-04T05:38:11;9.60;;;6.00;;
27219;SDS011;45274;52.266;10.790;2024-02-04T05:40:36;7.78;;;3.83;;
27219;SDS011;45274;52.266;10.790;2024-02-04T05:43:02;10.23;;;5.90;;
27219;SDS011;45274;52.266;10.790;2024-02-04T05:45:32;10.88;;;6.03;;
27219;SDS011;45274;52.266;10.790;2024-02-04T05:47:58;11.23;;;6.55;;
27219;SDS011;45274;52.266;10.790;2024-02-04T05:50:23;9.80;;;5.80;;
27219;SDS011;45274;52.266;10.790;2024-02-04T05:52:48;9.00;;;5.57;;
27219;SDS011;45274;52.266;10.790;2024-02-04T05:55:14;13.38;;;6.75;;
27219;SDS011;45274;52.266;10.790;2024-02-04T05:57:39;15.45;;;6.85;;
27219;SDS011;45274;52.266;10.790;2024-02-04T06:00:05;14.57;;;5.82;;
27219;SDS011;45274;52.266;10.790;2024-02-04T06:02:32;17.17;;;6.38;;
27219;SDS011;45274;52.266;10.790;2024-02-04T06:04:58;13.05;;;6.55;;
27219;SDS011;45274;52.266;10.790;2024-02-04T06:07:23;10.82;;;6.32;;
27219;SDS011;45274;52.266;10.790;2024-02-04T06:09:48;10.30;;;5.78;;
27219;SDS011;45274;52.266;10.790;2024-02-04T06:12:14;11.07;;;6.18;;
27219;SDS011;45274;52.266;10.790;2024-02-04T06:14:39;15.63;;;6.50;;
27219;SDS011;45274;52.266;10.790;2024-02-04T06:17:05;11.52;;;6.35;;
27219;SDS011;45274;52.266;10.790;2024-02-04T06:19:33;14.68;;;6.35;;
27219;SDS011;45274;52.266;10.790;2024-02-04T06:22:00;14.40;;;6.47;;
27219;SDS011;45274;52.266;10.790;2024-02-04T06:24:26;14.05;;;6.63;;
27219;SDS011;45274;52.266;10.790;2024-02-04T06:26:51;12.20;;;6.20;;
27219;SDS011;45274;52.266;10.790;2024-02-04T06:29:16;11.65;;;5.95;;
27219;SDS011;45274;52.266;10.790;2024-02-04T06:31:46;15.63;;;7.15;;
27219;SDS011;45274;52.266;10.790;2024-02-04T06:34:12;13.80;;;6.55;;
27219;SDS011;45274;52.266;10.790;2024-02-04T06:36:37;12.73;;;6.78;;
27219;SDS011;45274;52.266;10.790;2024-02-04T06:39:02;17.13;;;7.07;;
27219;SDS011;45274;52.266;10.790;2024-02-04T06:41:28;13.38;;;6.22;;
27219;SDS011;45274;52.266;10.790;2024-02-04T06:43:54;12.07;;;6.63;;
27219;SDS011;45274;52.266;10.790;2024-02-04T06:46:25;12.52;;;6.20;;
27219;SDS011;45274;52.266;10.790;2024-02-04T06:48:51;14.50;;;6.60;;
27219;SDS011;45274;52.266;10.790;2024-02-04T06:51:17;18.40;;;6.40;;
27219;SDS011;45274;52.266;10.790;2024-02-04T06:53:42;10.40;;;6.05;;
27219;SDS011;45274;52.266;10.790;2024-02-04T06:56:07;10.63;;;5.95;;
27219;SDS011;45274;52.266;10.790;2024-02-04T06:58:33;10.27;;;5.80;;
27219;SDS011;45274;52.266;10.790;2024-02-04T07:00:58;12.82;;;5.60;;
27219;SDS011;45274;52.266;10.790;2024-02-04T07:03:24;13.32;;;6.88;;
27219;SDS011;45274;52.266;10.790;2024-02-04T07:05:49;10.95;;;5.72;;
27219;SDS011;45274;52.266;10.790;2024-02-04T07:08:14;13.60;;;5.72;;
27219;SDS011;45274;52.266;10.790;2024-02-04T07:10:40;9.73;;;5.57;;
27219;SDS011;45274;52.266;10.790;2024-02-04T07:13:06;10.52;;;5.43;;
27219;SDS011;45274;52.266;10.790;2024-02-04T07:15:33;8.48;;;4.85;;
27219;SDS011;45274;52.266;10.790;2024-02-04T07:17:58;9.25;;;5.45;;
27219;SDS011;45274;52.266;10.790;2024-02-04T07:20:23;9.88;;;4.85;;
27219;SDS011;45274;52.266;10.790;2024-02-04T07:22:49;10.70;;;4.38;;
27219;SDS011;45274;52.266;10.790;2024-02-04T07:25:14;9.90;;;4.30;;
27219;SDS011;45274;52.266;10.790;2024-02-04T07:27:40;8.93;;;4.20;;
27219;SDS011;45274;52.266;10.790;2024-02-04T07:30:05;7.50;;;4.40;;
27219;SDS011;45274;52.266;10.790;2024-02-04T07:32:31;7.75;;;4.03;;
27219;SDS011;45274;52.266;10.790;2024-02-04T07:34:56;6.53;;;3.35;;
27219;SDS011;45274;52.266;10.790;2024-02-04T07:37:22;7.00;;;3.50;;
27219;SDS011;45274;52.266;10.790;2024-02-04T07:39:47;8.82;;;4.10;;
27219;SDS011;45274;52.266;10.790;2024-02-04T07:42:13;7.45;;;3.63;;
27219;SDS011;45274;52.266;10.790;2024-02-04T07:44:38;10.40;;;3.97;;
27219;SDS011;45274;52.266;10.790;2024-02-04T07:47:06;7.68;;;3.50;;
27219;SDS011;45274;52.266;10.790;2024-02-04T07:49:32;6.38;;;3.17;;
27219;SDS011;45274;52.266;10.790;2024-02-04T07:51:57;5.38;;;2.90;;
27219;SDS011;45274;52.266;10.790;2024-02-04T07:54:22;8.30;;;3.47;;
27219;SDS011;45274;52.266;10.790;2024-02-04T07:56:48;9.73;;;3.75;;
27219;SDS011;45274;52.266;10.790;2024-02-04T07:59:13;6.10;;;2.80;;
27219;SDS011;45274;52.266;10.790;2024-02-04T08:01:38;7.70;;;3.00;;
27219;SDS011;45274;52.266;10.790;2024-02-04T08:04:04;8.40;;;3.10;;
27219;SDS011;45274;52.266;10.790;2024-02-04T08:06:31;6.57;;;3.17;;
27219;SDS011;45274;52.266;10.790;2024-02-04T08:08:59;8.43;;;2.83;;
27219;SDS011;45274;52.266;10.790;2024-02-04T08:11:24;5.55;;;2.70;;
27219;SDS011;45274;52.266;10.790;2024-02-04T08:13:50;5.57;;;2.33;;
27219;SDS011;45274;52.266;10.790;2024-02-04T08:16:15;5.40;;;2.22;;
27219;SDS011;45274;52.266;10.790;2024-02-04T08:18:41;5.80;;;2.50;;
27219;SDS011;45274;52.266;10.790;2024-02-04T08:21:07;9.20;;;2.45;;
27219;SDS011;45274;52.266;10.790;2024-02-04T08:23:32;7.13;;;2.30;;
27219;SDS011;45274;52.266;10.790;2024-02-04T08:25:58;7.28;;;2.33;;
27219;SDS011;45274;52.266;10.790;2024-02-04T08:28:24;5.32;;;2.58;;
27219;SDS011;45274;52.266;10.790;2024-02-04T08:30:49;7.07;;;2.63;;
27219;SDS011;45274;52.266;10.790;2024-02-04T08:33:15;5.65;;;2.60;;
27219;SDS011;45274;52.266;10.790;2024-02-04T08:35:40;6.85;;;2.33;;
27219;SDS011;45274;52.266;10.790;2024-02-04T08:38:06;9.43;;;2.45;;
27219;SDS011;45274;52.266;10.790;2024-02-04T08:40:31;4.78;;;1.67;;
27219;SDS011;45274;52.266;10.790;2024-02-04T08:42:57;6.38;;;1.77;;
27219;SDS011;45274;52.266;10.790;2024-02-04T08:45:22;5.93;;;1.80;;
27219;SDS011;45274;52.266;10.790;2024-02-04T08:47:48;5.03;;;1.95;;
27219;SDS011;45274;52.266;10.790;2024-02-04T08:50:13;4.13;;;1.60;;
27219;SDS011;45274;52.266;10.790;2024-02-04T08:52:39;6.45;;;2.08;;
27219;SDS011;45274;52.266;10.790;2024-02-04T08:55:04;3.88;;;1.52;;
27219;SDS011;45274;52.266;10.790;2024-02-04T08:57:30;8.65;;;1.83;;
27219;SDS011;45274;52.266;10.790;2024-02-04T08:59:55;2.28;;;1.25;;
27219;SDS011;45274;52.266;10.790;2024-02-04T09:02:20;6.20;;;1.55;;
27219;SDS011;45274;52.266;10.790;2024-02-04T09:04:46;5.10;;;1.98;;
27219;SDS011;45274;52.266;10.790;2024-02-04T09:07:11;3.67;;;1.25;;
27219;SDS011;45274;52.266;10.790;2024-02-04T09:09:37;2.42;;;1.20;;
27219;SDS011;45274;52.266;10.790;2024-02-04T09:12:02;4.38;;;1.42;;
27219;SDS011;45274;52.266;10.790;2024-02-04T09:14:28;4.63;;;1.58;;
27219;SDS011;45274;52.266;10.790;2024-02-04T09:16:53;5.47;;;1.10;;
27219;SDS011;45274;52.266;10.790;2024-02-04T09:19:18;4.72;;;1.35;;
27219;SDS011;45274;52.266;10.790;2024-02-04T09:21:44;4.68;;;1.58;;
27219;SDS011;45274;52.266;10.790;2024-02-04T09:24:09;4.15;;;1.10;;
27219;SDS011;45274;52.266;10.790;2024-02-04T09:26:36;4.53;;;1.40;;
27219;SDS011;45274;52.266;10.790;2024-02-04T09:29:01;5.85;;;1.20;;
27219;SDS011;45274;52.266;10.790;2024-02-04T09:31:27;3.40;;;1.20;;
27219;SDS011;45274;52.266;10.790;2024-02-04T09:33:53;4.57;;;0.98;;
27219;SDS011;45274;52.266;10.790;2024-02-04T09:36:18;3.95;;;1.40;;
27219;SDS011;45274;52.266;10.790;2024-02-04T09:38:44;7.22;;;1.38;;
27219;SDS011;45274;52.266;10.790;2024-02-04T09:41:09;3.83;;;1.02;;
27219;SDS011;45274;52.266;10.790;2024-02-04T09:43:35;2.83;;;1.08;;
27219;SDS011;45274;52.266;10.790;2024-02-04T09:46:01;4.45;;;1.45;;
27219;SDS011;45274;52.266;10.790;2024-02-04T09:48:31;3.35;;;1.02;;
27219;SDS011;45274;52.266;10.790;2024-02-04T09:50:57;5.57;;;1.60;;
27219;SDS011;45274;52.266;10.790;2024-02-04T09:53:27;7.32;;;1.30;;
27219;SDS011;45274;52.266;10.790;2024-02-04T09:55:58;2.50;;;1.10;;
27219;SDS011;45274;52.266;10.790;2024-02-04T09:58:24;3.53;;;1.35;;
27219;SDS011;45274;52.266;10.790;2024-02-04T10:00:50;4.35;;;1.10;;
27219;SDS011;45274;52.266;10.790;2024-02-04T10:03:16;6.32;;;1.40;;
27219;SDS011;45274;52.266;10.790;2024-02-04T10:05:41;4.75;;;1.27;;
27219;SDS011;45274;52.266;10.790;2024-02-04T10:08:07;6.20;;;1.33;;
27219;SDS011;45274;52.266;10.790;2024-02-04T10:10:32;5.55;;;1.50;;
27219;SDS011;45274;52.266;10.790;2024-02-04T10:12:58;3.70;;;1.35;;
27219;SDS011;45274;52.266;10.790;2024-02-04T10:15:23;11.07;;;2.17;;
27219;SDS011;45274;52.266;10.790;2024-02-04T10:17:49;6.72;;;1.60;;
27219;SDS011;45274;52.266;10.790;2024-02-04T10:20:15;10.27;;;2.88;;
27219;SDS011;45274;52.266;10.790;2024-02-04T10:22:40;9.80;;;3.08;;
27219;SDS011;45274;52.266;10.790;2024-02-04T10:25:06;4.53;;;1.83;;
27219;SDS011;45274;52.266;10.790;2024-02-04T10:27:33;7.07;;;2.30;;
27219;SDS011;45274;52.266;10.790;2024-02-04T10:29:58;6.90;;;2.03;;
27219;SDS011;45274;52.266;10.790;2024-02-04T10:32:24;6.75;;;1.92;;
27219;SDS011;45274;52.266;10.790;2024-02-04T10:34:51;17.63;;;4.10;;
27219;SDS011;45274;52.266;10.790;2024-02-04T10:37:16;14.50;;;7.68;;
27219;SDS011;45274;52.266;10.790;2024-02-04T10:39:41;9.70;;;3.45;;
27219;SDS011;45274;52.266;10.790;2024-02-04T10:42:07;12.55;;;3.33;;
27219;SDS011;45274;52.266;10.790;2024-02-04T10:44:35;9.23;;;2.50;;
27219;SDS011;45274;52.266;10.790;2024-02-04T10:47:05;6.15;;;1.83;;
27219;SDS011;45274;52.266;10.790;2024-02-04T10:49:34;9.32;;;1.95;;
27219;SDS011;45274;52.266;10.790;2024-02-04T10:52:04;7.82;;;1.83;;
27219;SDS011;45274;52.266;10.790;2024-02-04T10:54:32;7.00;;;2.00;;
27219;SDS011;45274;52.266;10.790;2024-02-04T10:57:05;7.18;;;2.15;;
27219;SDS011;45274;52.266;10.790;2024-02-04T10:59:33;10.35;;;2.25;;
27219;SDS011;45274;52.266;10.790;2024-02-04T11:01:59;8.45;;;2.70;;
27219;SDS011;45274;52.266;10.790;2024-02-04T11:04:25;10.07;;;2.95;;
27219;SDS011;45274;52.266;10.790;2024-02-04T11:06:52;11.15;;;2.50;;
27219;SDS011;45274;52.266;10.790;2024-02-04T11:09:19;12.80;;;3.05;;
27219;SDS011;45274;52.266;10.790;2024-02-04T11:11:45;6.40;;;1.73;;
27219;SDS011;45274;52.266;10.790;2024-02-04T11:14:13;9.75;;;2.65;;
27219;SDS011;45274;52.266;10.790;2024-02-04T11:27:08;10.68;;;2.20;;
27219;SDS011;45274;52.266;10.790;2024-02-04T11:29:34;9.25;;;1.80;;
27219;SDS011;45274;52.266;10.790;2024-02-04T11:32:01;5.85;;;1.58;;
27219;SDS011;45274;52.266;10.790;2024-02-04T11:34:27;6.38;;;1.55;;
27219;SDS011;45274;52.266;10.790;2024-02-04T11:36:52;6.68;;;1.45;;
27219;SDS011;45274;52.266;10.790;2024-02-04T11:39:18;7.97;;;1.92;;
27219;SDS011;45274;52.266;10.790;2024-02-04T11:41:47;5.85;;;1.27;;
27219;SDS011;45274;52.266;10.790;2024-02-04T11:44:23;6.05;;;1.85;;
27219;SDS011;45274;52.266;10.790;2024-02-04T11:46:50;7.22;;;1.85;;
27219;SDS011;45274;52.266;10.790;2024-02-04T11:49:16;10.65;;;1.40;;
27219;SDS011;45274;52.266;10.790;2024-02-04T11:51:46;11.73;;;1.83;;
27219;SDS011;45274;52.266;10.790;2024-02-04T11:54:15;4.90;;;1.48;;
27219;SDS011;45274;52.266;10.790;2024-02-04T11:56:41;8.75;;;1.67;;
27219;SDS011;45274;52.266;10.790;2024-02-04T11:59:07;9.98;;;1.85;;
27219;SDS011;45274;52.266;10.790;2024-02-04T12:01:34;8.50;;;1.70;;
27219;SDS011;45274;52.266;10.790;2024-02-04T12:04:10;11.68;;;1.70;;
27219;SDS011;45274;52.266;10.790;2024-02-04T12:06:38;8.48;;;2.08;;
27219;SDS011;45274;52.266;10.790;2024-02-04T12:09:05;8.75;;;1.60;;
27219;SDS011;45274;52.266;10.790;2024-02-04T12:11:32;7.57;;;1.80;;
27219;SDS011;45274;52.266;10.790;2024-02-04T12:14:06;7.93;;;1.48;;
27219;SDS011;45274;52.266;10.790;2024-02-04T12:16:32;6.43;;;1.40;;
27219;SDS011;45274;52.266;10.790;2024-02-04T12:19:00;6.57;;;1.85;;
27219;SDS011;45274;52.266;10.790;2024-02-04T12:21:28;8.75;;;1.60;;
27219;SDS011;45274;52.266;10.790;2024-02-04T12:23:54;4.85;;;1.33;;
27219;SDS011;45274;52.266;10.790;2024-02-04T12:26:19;7.00;;;1.40;;
27219;SDS011;45274;52.266;10.790;2024-02-04T12:28:45;6.10;;;1.40;;
27219;SDS011;45274;52.266;10.790;2024-02-04T12:31:20;9.60;;;1.67;;
27219;SDS011;45274;52.266;10.790;2024-02-04T12:33:53;7.03;;;1.33;;
27219;SDS011;45274;52.266;10.790;2024-02-04T12:36:29;4.45;;;1.65;;
27219;SDS011;45274;52.266;10.790;2024-02-04T12:38:56;5.47;;;1.63;;
27219;SDS011;45274;52.266;10.790;2024-02-04T12:41:23;4.05;;;1.52;;
27219;SDS011;45274;52.266;10.790;2024-02-04T12:43:53;4.68;;;1.30;;
27219;SDS011;45274;52.266;10.790;2024-02-04T12:46:20;5.45;;;1.30;;
27219;SDS011;45274;52.266;10.790;2024-02-04T12:48:52;8.10;;;1.48;;
27219;SDS011;45274;52.266;10.790;2024-02-04T12:53:50;6.70;;;1.52;;
27219;SDS011;45274;52.266;10.790;2024-02-04T12:56:15;6.85;;;2.33;;
27219;SDS011;45274;52.266;10.790;2024-02-04T12:58:44;3.83;;;1.20;;
27219;SDS011;45274;52.266;10.790;2024-02-04T13:01:09;8.63;;;1.35;;
27219;SDS011;45274;52.266;10.790;2024-02-04T13:03:35;5.57;;;1.20;;
27219;SDS011;45274;52.266;10.790;2024-02-04T13:06:00;6.10;;;1.50;;
27219;SDS011;45274;52.266;10.790;2024-02-04T13:08:26;3.97;;;0.98;;
27219;SDS011;45274;52.266;10.790;2024-02-04T13:10:55;7.80;;;1.45;;
27219;SDS011;45274;52.266;10.790;2024-02-04T13:13:22;4.25;;;1.23;;
27219;SDS011;45274;52.266;10.790;2024-02-04T13:15:50;5.35;;;0.98;;
27219;SDS011;45274;52.266;10.790;2024-02-04T13:18:15;3.83;;;1.13;;
27219;SDS011;45274;52.266;10.790;2024-02-04T13:20:41;9.45;;;1.70;;
27219;SDS011;45274;52.266;10.790;2024-02-04T13:23:07;10.48;;;2.10;;
27219;SDS011;45274;52.266;10.790;2024-02-04T13:25:33;8.13;;;1.73;;
27219;SDS011;45274;52.266;10.790;2024-02-04T13:27:59;6.13;;;1.35;;
27219;SDS011;45274;52.266;10.790;2024-02-04T13:30:25;7.13;;;1.70;;
27219;SDS011;45274;52.266;10.790;2024-02-04T13:32:51;8.07;;;1.73;;
27219;SDS011;45274;52.266;10.790;2024-02-04T13:35:17;5.97;;;1.00;;
27219;SDS011;45274;52.266;10.790;2024-02-04T13:37:46;3.17;;;1.30;;
27219;SDS011;45274;52.266;10.790;2024-02-04T13:40:16;8.57;;;1.50;;
27219;SDS011;45274;52.266;10.790;2024-02-04T13:42:43;3.35;;;1.20;;
27219;SDS011;45274;52.266;10.790;2024-02-04T13:45:09;4.90;;;1.30;;
27219;SDS011;45274;52.266;10.790;2024-02-04T13:47:34;5.13;;;1.25;;
27219;SDS011;45274;52.266;10.790;2024-02-04T13:50:00;6.55;;;1.55;;
27219;SDS011;45274;52.266;10.790;2024-02-04T13:52:26;5.22;;;1.40;;
27219;SDS011;45274;52.266;10.790;2024-02-04T13:54:51;9.23;;;1.48;;
27219;SDS011;45274;52.266;10.790;2024-02-04T13:57:17;6.75;;;2.00;;
27219;SDS011;45274;52.266;10.790;2024-02-04T13:59:42;5.25;;;2.40;;
27219;SDS011;45274;52.266;10.790;2024-02-04T14:02:08;14.82;;;6.28;;
27219;SDS011;45274;52.266;10.790;2024-02-04T14:04:34;10.25;;;4.90;;
27219;SDS011;45274;52.266;10.790;2024-02-04T14:06:59;10.98;;;3.92;;
27219;SDS011;45274;52.266;10.790;2024-02-04T14:09:25;10.43;;;3.85;;
27219;SDS011;45274;52.266;10.790;2024-02-04T14:11:51;5.95;;;1.88;;
27219;SDS011;45274;52.266;10.790;2024-02-04T14:14:17;5.07;;;1.55;;
27219;SDS011;45274;52.266;10.790;2024-02-04T14:16:42;3.42;;;1.23;;
27219;SDS011;45274;52.266;10.790;2024-02-04T14:19:07;2.72;;;1.10;;
27219;SDS011;45274;52.266;10.790;2024-02-04T14:21:33;4.03;;;1.40;;
27219;SDS011;45274;52.266;10.790;2024-02-04T14:23:58;2.58;;;1.05;;
27219;SDS011;45274;52.266;10.790;2024-02-04T14:26:23;3.10;;;1.10;;
27219;SDS011;45274;52.266;10.790;2024-02-04T14:28:49;2.70;;;1.15;;
27219;SDS011;45274;52.266;10.790;2024-02-04T14:31:14;3.70;;;1.20;;
27219;SDS011;45274;52.266;10.790;2024-02-04T14:33:40;4.05;;;1.27;;
27219;SDS011;45274;52.266;10.790;2024-02-04T14:36:06;5.03;;;1.00;;
27219;SDS011;45274;52.266;10.790;2024-02-04T14:38:32;3.17;;;1.30;;
27219;SDS011;45274;52.266;10.790;2024-02-04T14:40:58;3.90;;;1.63;;
27219;SDS011;45274;52.266;10.790;2024-02-04T14:43:24;2.67;;;1.00;;